Clear Sky Current Weather (METAR) For Bournemouth Airport

All times on the weather descriptions are local

Observed at 16:20 - (12 mins ago)

Clear Sky

22°C

Clear Sky
Clouds:
Wind: 060° at 13 knots
Visibility: 9,000m
QNH: 1008
Dew Point: 15°C
Runway in Use: Runway 08

Sunrise Today: 06:45
Sunset Today: 19:18

Forecast Weather (TAF) For Bournemouth Airport

Issued at 01:00 - (13 days ago)


Runway in Use: Unable to determine, wind is clam

Forecast valid until 01:00 on Tuesday

METAR/TAF RAW METAR / TAF

EGHH 171520Z 06013KT 9000 NSC 22/15 Q1008

Weather Widget

Put weather from any of our airports on your website with our weather widget.

Find Another Search

Airport Search


Please Wait Please Wait - Loading
Close
Close

Login

Username:

Password:

Remember Me:

Remember me on this computer

Forgotten your password? Get a reset password sent to your registered e-mail address

Close

User Private Message

Subject:

Message: